North Olmsted, Ohio
Current Conditions -  °F | °C
As of 10:51 PM on Wednesday 17 Dec 2014 (Local Time) from KCLE Reporting Station
Light Snow Light Snow  
Wind Chill: 19°   Ceiling: 2600
Heat Index: 29°   Visibility: 9mi
Dew Point: 22°   Wind: 12mph
Humidity: 75%   Direction: 260°W
Pressure: 30.17"   Gusts: NA
Location:  41.41°N, 81.92°W
Report Text: KCLE 180351Z 26010KT 9SM -SN OVC026 M02/M06 A3017 RMK AO2 SLP223 P0000 T10171056
Loading
Personal Weather Stations






























Interactive Weather Map New forecast layout! Learn more

10-Day Weather Forecast

Advertisements
Track Severe Weather on mobile